Terminal Aerodrome Forecast
Issued by NWS Wilmington, OH

Current Version | Previous Version | Text Only | Print | Product List | Glossary Off
Versions: 1 2 3 4 5 6 7 8 9 10 11 12 13 14 15 16 17 18 19 20 21 22

147
FTUS41 KILN 032103 AAA
TAFCVG
TAF AMD
KCVG 032103Z 0321/0424 26015G22KT P6SM SCT040
     FM032300 26012KT P6SM OVC035
     FM040100 26012KT P6SM OVC025
     FM040700 27010KT P6SM OVC015
     FM041500 27009KT P6SM BKN025
     FM041800 28008KT P6SM BKN035=

USA.gov is the U.S. government's official web portal to all federal, state and local government web resources and services.